Terminal Aerodrome Forecast
Issued by NWS Austin/San Antonio, TX

Home | Current Version | Previous Version | Text Only | Print | Product List | Glossary On
Versions: 1 2 3 4 5 6 7 8 9 10 11 12 13 14 15 16 17 18 19 20 21 22 23 24
000
FTUS44 KEWX 020500
TAFSAT
TAF
KSAT 020531Z 0206/0312 05005KT P6SM SCT250
     FM021300 05005KT P6SM BKN020
     FM021600 05009KT P6SM SCT040 BKN250
     FM022100 07005KT P6SM BKN250=

USA.gov is the U.S. government's official web portal to all federal, state and local government web resources and services.